createdAt,value
2019-05-22T00:01:40.314Z,20.97
2019-05-22T00:04:51.137Z,30.13
2019-05-22T00:07:55.881Z,25.77
2019-05-22T00:11:01.769Z,31.40
2019-05-22T00:14:07.239Z,31.67
2019-05-22T00:17:15.259Z,31.63
2019-05-22T00:20:22.377Z,27.50
2019-05-22T00:23:27.440Z,32.37
2019-05-22T00:26:31.511Z,21.57
2019-05-22T00:29:35.343Z,23.63
2019-05-22T00:32:39.802Z,19.60
2019-05-22T00:35:44.975Z,19.33
2019-05-22T00:38:51.257Z,18.33
2019-05-22T00:41:55.598Z,17.70
2019-05-22T00:44:59.977Z,20.03
2019-05-22T00:48:04.950Z,16.47
2019-05-22T00:51:28.918Z,18.70
2019-05-22T00:54:40.654Z,17.00
2019-05-22T00:57:50.505Z,21.67
2019-05-22T01:01:01.170Z,21.80
2019-05-22T01:04:06.194Z,18.87
2019-05-22T01:07:17.627Z,15.57
2019-05-22T01:10:25.808Z,31.30
2019-05-22T01:13:32.884Z,30.70
2019-05-22T01:16:37.179Z,27.07
2019-05-22T01:19:42.536Z,13.93
2019-05-22T01:22:48.617Z,17.70
2019-05-22T01:25:52.513Z,15.43
2019-05-22T01:28:56.816Z,24.43
2019-05-22T01:32:08.539Z,15.07
2019-05-22T01:35:13.781Z,17.73
2019-05-22T01:38:18.889Z,23.73
2019-05-22T01:41:30.283Z,19.53
2019-05-22T01:44:34.509Z,20.10
2019-05-22T01:48:05.470Z,28.10
2019-05-22T01:51:12.011Z,29.43
2019-05-22T01:54:18.177Z,33.23
2019-05-22T01:57:22.754Z,32.17
2019-05-22T02:00:28.514Z,34.53
2019-05-22T02:03:34.251Z,25.93
2019-05-22T02:06:39.134Z,25.87
2019-05-22T02:09:43.751Z,34.33
2019-05-22T02:12:54.841Z,32.20
2019-05-22T02:15:59.094Z,26.70
2019-05-22T02:19:05.079Z,34.03
2019-05-22T02:22:11.040Z,30.20
2019-05-22T02:25:15.600Z,32.73
2019-05-22T02:28:21.531Z,32.93
2019-05-22T02:31:28.696Z,41.13
2019-05-22T02:34:32.460Z,39.63
2019-05-22T02:37:36.977Z,35.83
2019-05-22T02:40:43.960Z,36.63
2019-05-22T02:43:48.110Z,33.27
2019-05-22T02:46:53.049Z,31.10
2019-05-22T02:49:58.163Z,41.23
2019-05-22T02:53:03.341Z,40.57
2019-05-22T02:56:07.229Z,27.70
2019-05-22T02:59:13.035Z,33.30
2019-05-22T03:02:18.094Z,40.20
2019-05-22T03:05:24.961Z,40.67
2019-05-22T03:08:46.136Z,31.47
2019-05-22T03:11:57.719Z,39.63
2019-05-22T03:15:04.067Z,32.03
2019-05-22T03:18:08.633Z,31.17
2019-05-22T03:21:13.695Z,34.17
2019-05-22T03:24:17.780Z,29.67
2019-05-22T03:27:38.653Z,34.17
2019-05-22T03:30:44.012Z,39.13
2019-05-22T03:33:48.301Z,32.20
2019-05-22T03:36:53.557Z,39.67
2019-05-22T03:39:57.294Z,37.50
2019-05-22T03:43:05.679Z,39.63
2019-05-22T03:46:44.005Z,47.63
2019-05-22T03:49:49.559Z,58.37
2019-05-22T03:52:55.105Z,35.60
2019-05-22T03:55:58.830Z,58.83
2019-05-22T03:59:03.600Z,44.53
2019-05-22T04:02:09.655Z,43.00
2019-05-22T04:05:14.796Z,40.20
2019-05-22T04:08:21.470Z,34.67
2019-05-22T04:11:28.730Z,41.60
2019-05-22T04:14:37.782Z,31.90
2019-05-22T04:17:44.990Z,40.77
2019-05-22T04:20:48.985Z,32.03
2019-05-22T04:23:52.878Z,36.37
2019-05-22T04:26:57.327Z,39.33
2019-05-22T04:30:01.522Z,29.67
2019-05-22T04:33:05.316Z,33.73
2019-05-22T04:36:10.454Z,34.73
2019-05-22T04:39:24.044Z,35.83
2019-05-22T04:42:29.218Z,29.00
2019-05-22T04:45:32.933Z,33.87
2019-05-22T04:48:37.867Z,44.13
2019-05-22T04:51:42.050Z,39.67
2019-05-22T04:54:45.752Z,28.37
2019-05-22T04:57:50.340Z,34.70
2019-05-22T05:00:55.119Z,40.40
2019-05-22T05:04:00.018Z,42.33
2019-05-22T05:07:07.267Z,37.57
2019-05-22T05:10:11.931Z,36.30
2019-05-22T05:13:16.424Z,37.93
2019-05-22T05:16:20.469Z,44.97
2019-05-22T05:19:24.637Z,37.77
2019-05-22T05:22:44.179Z,52.07
2019-05-22T05:25:48.040Z,43.60
2019-05-22T05:28:52.413Z,33.70
2019-05-22T05:31:56.848Z,53.60
2019-05-22T05:35:05.766Z,32.30
2019-05-22T05:38:10.899Z,32.40
2019-05-22T05:41:15.348Z,41.90
2019-05-22T05:44:19.359Z,44.60
2019-05-22T05:47:23.926Z,39.33
2019-05-22T05:50:39.062Z,40.90
2019-05-22T05:53:42.123Z,36.87
2019-05-22T05:56:48.379Z,32.67
2019-05-22T05:59:52.361Z,37.60
2019-05-22T06:03:01.205Z,30.83
2019-05-22T06:06:47.886Z,38.10
2019-05-22T06:10:39.464Z,38.17
2019-05-22T06:13:43.679Z,35.73
2019-05-22T06:17:28.879Z,29.73
2019-05-22T06:20:33.261Z,36.53
2019-05-22T06:24:15.308Z,30.57
2019-05-22T06:27:41.773Z,39.50
2019-05-22T06:30:47.558Z,29.90
2019-05-22T06:33:51.600Z,27.30
2019-05-22T06:36:58.783Z,27.80
2019-05-22T06:40:02.592Z,30.50
2019-05-22T06:44:01.271Z,34.07
2019-05-22T06:47:08.311Z,29.50
2019-05-22T06:50:12.426Z,31.00
2019-05-22T06:53:16.579Z,27.37
2019-05-22T06:56:23.772Z,30.10
2019-05-22T06:59:25.960Z,23.13
2019-05-22T07:02:35.483Z,25.90
2019-05-22T07:05:39.724Z,31.93
2019-05-22T07:08:43.719Z,22.77
2019-05-22T07:11:47.436Z,35.93
2019-05-22T07:15:31.164Z,31.30
2019-05-22T07:18:35.005Z,28.40
2019-05-22T07:21:39.551Z,28.30
2019-05-22T07:24:43.824Z,35.83
2019-05-22T07:27:48.710Z,42.63
2019-05-22T07:30:53.667Z,28.60
2019-05-22T07:33:58.099Z,32.13
2019-05-22T07:37:03.170Z,39.60
2019-05-22T07:40:07.846Z,29.93
2019-05-22T07:43:11.833Z,29.27
2019-05-22T07:46:15.610Z,39.03
2019-05-22T07:49:21.073Z,36.03
2019-05-22T07:52:25.376Z,34.73
2019-05-22T07:55:32.168Z,31.40
2019-05-22T07:58:36.211Z,31.77
2019-05-22T08:01:40.406Z,30.40
2019-05-22T08:04:45.765Z,35.47
2019-05-22T08:07:51.414Z,41.37
2019-05-22T08:10:57.136Z,31.20
2019-05-22T08:14:01.310Z,30.43
2019-05-22T08:17:08.404Z,25.67
2019-05-22T08:20:12.829Z,36.17
2019-05-22T08:23:17.713Z,34.00
2019-05-22T08:26:23.546Z,27.77
2019-05-22T08:29:27.871Z,27.17
2019-05-22T08:32:32.954Z,26.90
2019-05-22T08:35:37.143Z,35.50
2019-05-22T08:38:43.771Z,26.63
2019-05-22T08:41:47.740Z,36.10
2019-05-22T08:44:51.821Z,30.37
2019-05-22T08:47:56.236Z,28.43
2019-05-22T08:51:01.213Z,33.37
2019-05-22T08:54:06.570Z,26.80
2019-05-22T08:57:12.410Z,25.83
2019-05-22T09:00:18.116Z,22.13
2019-05-22T09:03:22.203Z,21.40
2019-05-22T09:06:26.181Z,19.10
2019-05-22T09:09:29.887Z,17.97
2019-05-22T09:12:34.330Z,16.90
2019-05-22T09:15:40.457Z,16.80
2019-05-22T09:18:44.375Z,22.23
2019-05-22T09:21:48.858Z,18.10
2019-05-22T09:24:53.038Z,15.57
2019-05-22T09:27:57.317Z,19.23
2019-05-22T09:31:01.116Z,19.07
2019-05-22T09:34:04.984Z,26.87
2019-05-22T09:37:08.762Z,21.77
2019-05-22T09:40:13.198Z,15.87
2019-05-22T09:43:17.416Z,19.57
2019-05-22T09:46:22.414Z,22.70
2019-05-22T09:49:26.593Z,24.73
2019-05-22T09:52:30.956Z,19.53
2019-05-22T09:55:35.837Z,18.27
2019-05-22T09:58:40.042Z,16.70
2019-05-22T10:01:43.957Z,20.13
2019-05-22T10:04:47.998Z,18.67
2019-05-22T10:08:00.736Z,16.43
2019-05-22T10:10:58.763Z,23.93
2019-05-22T10:14:03.088Z,19.23
2019-05-22T10:17:08.733Z,15.63
2019-05-22T10:20:13.846Z,19.20
2019-05-22T10:23:18.793Z,16.77
2019-05-22T10:26:23.058Z,11.70
2019-05-22T10:29:27.404Z,11.57
2019-05-22T10:32:32.568Z,14.37
2019-05-22T10:35:37.258Z,16.97
2019-05-22T10:38:41.232Z,14.83
2019-05-22T10:41:45.009Z,18.97
2019-05-22T10:44:49.957Z,15.67
2019-05-22T10:47:53.840Z,13.23
2019-05-22T10:50:57.542Z,8.20
2019-05-22T10:54:01.390Z,15.43
2019-05-22T10:57:05.722Z,18.50
2019-05-22T11:00:12.914Z,10.90
2019-05-22T11:03:17.936Z,10.27
2019-05-22T11:06:22.479Z,11.07
2019-05-22T11:09:27.317Z,11.73
2019-05-22T11:12:32.002Z,13.23
2019-05-22T11:15:35.803Z,11.40
2019-05-22T11:18:41.059Z,8.37
2019-05-22T11:21:45.496Z,14.23
2019-05-22T11:24:49.698Z,11.30
2019-05-22T11:27:54.542Z,10.90
2019-05-22T11:30:58.570Z,8.70
2019-05-22T11:34:02.371Z,14.17
2019-05-22T11:37:06.723Z,12.70
2019-05-22T11:40:12.356Z,13.20
2019-05-22T11:43:16.242Z,9.30
2019-05-22T11:46:20.360Z,6.87
2019-05-22T11:49:24.690Z,16.03
2019-05-22T11:52:29.853Z,9.63
2019-05-22T11:55:45.130Z,11.67
2019-05-22T11:58:39.423Z,9.33
2019-05-22T12:01:44.039Z,9.23
2019-05-22T12:04:49.018Z,8.80
2019-05-22T12:07:54.381Z,5.97
2019-05-22T12:10:59.041Z,9.97
2019-05-22T12:14:03.342Z,6.83
2019-05-22T12:17:07.691Z,9.53
2019-05-22T12:20:13.353Z,6.00
2019-05-22T12:23:17.366Z,7.87
2019-05-22T12:26:21.817Z,5.87
2019-05-22T12:29:25.795Z,6.13
2019-05-22T12:32:31.250Z,8.33
2019-05-22T12:35:35.100Z,9.13
2019-05-22T12:38:39.446Z,10.53
2019-05-22T12:41:45.766Z,10.80
2019-05-22T12:44:49.574Z,6.80
2019-05-22T12:47:54.164Z,5.60
2019-05-22T12:50:58.616Z,6.77
2019-05-22T12:54:03.002Z,8.30
2019-05-22T12:57:06.987Z,9.63
2019-05-22T13:00:11.085Z,5.97
2019-05-22T13:03:15.586Z,6.47
2019-05-22T13:06:20.215Z,6.73
2019-05-22T13:09:24.185Z,9.13
2019-05-22T13:12:28.042Z,7.10
2019-05-22T13:15:32.912Z,8.63
2019-05-22T13:18:37.249Z,6.90
2019-05-22T13:21:42.263Z,8.43
2019-05-22T13:24:46.515Z,7.53
2019-05-22T13:27:53.304Z,5.40
2019-05-22T13:30:58.152Z,8.17
2019-05-22T13:34:03.704Z,7.47
2019-05-22T13:37:10.051Z,8.43
2019-05-22T13:40:27.080Z,8.83
2019-05-22T13:43:20.577Z,7.30
2019-05-22T13:46:24.542Z,10.57
2019-05-22T13:49:30.430Z,14.53
2019-05-22T13:52:35.288Z,9.47
2019-05-22T13:55:40.096Z,9.33
2019-05-22T13:58:44.455Z,6.03
2019-05-22T14:01:48.239Z,11.43
2019-05-22T14:04:52.125Z,9.40
2019-05-22T14:07:55.832Z,6.50
2019-05-22T14:11:00.217Z,7.70
2019-05-22T14:14:04.352Z,5.00
2019-05-22T14:17:08.307Z,7.23
2019-05-22T14:20:15.880Z,7.87
2019-05-22T14:23:20.232Z,5.90
2019-05-22T14:26:24.552Z,6.30
2019-05-22T14:29:28.800Z,5.93
2019-05-22T14:32:32.985Z,7.33
2019-05-22T14:35:48.266Z,6.97
2019-05-22T14:38:46.392Z,5.97
2019-05-22T14:41:50.216Z,6.00
2019-05-22T14:44:54.290Z,8.47
2019-05-22T14:47:58.340Z,8.20
2019-05-22T14:51:02.206Z,7.27
2019-05-22T14:54:07.985Z,8.60
2019-05-22T14:57:12.211Z,8.13
2019-05-22T15:00:17.698Z,6.93
2019-05-22T15:03:21.473Z,31.20
2019-05-22T15:06:26.005Z,6.07
2019-05-22T15:09:30.024Z,32.20
2019-05-22T15:12:34.041Z,5.77
2019-05-22T15:15:40.642Z,6.70
2019-05-22T15:18:43.875Z,13.63
2019-05-22T15:21:48.066Z,11.27
2019-05-22T15:24:53.538Z,8.87
2019-05-22T15:27:57.809Z,7.73
2019-05-22T15:31:03.428Z,9.37
2019-05-22T15:34:08.240Z,8.57
2019-05-22T15:37:13.553Z,11.47
2019-05-22T15:40:19.191Z,8.27
2019-05-22T15:43:24.729Z,10.80
2019-05-22T15:46:29.056Z,8.50
2019-05-22T15:49:34.060Z,7.57
2019-05-22T15:52:39.812Z,9.30
2019-05-22T15:55:45.941Z,8.13
2019-05-22T15:58:53.938Z,8.80
2019-05-22T16:01:59.409Z,6.50
2019-05-22T16:05:05.759Z,7.83
2019-05-22T16:08:10.769Z,7.13
2019-05-22T16:11:16.858Z,5.53
2019-05-22T16:14:21.889Z,8.43
2019-05-22T16:17:28.778Z,10.27
2019-05-22T16:20:33.517Z,8.87
2019-05-22T16:23:38.325Z,7.70
2019-05-22T16:26:42.660Z,5.83
2019-05-22T16:29:46.764Z,6.43
2019-05-22T16:32:50.966Z,7.80
2019-05-22T16:35:55.174Z,9.37
2019-05-22T16:38:59.618Z,12.20
2019-05-22T16:42:04.279Z,7.33
2019-05-22T16:45:09.280Z,8.50
2019-05-22T16:48:28.383Z,9.20
2019-05-22T16:51:21.538Z,7.97
2019-05-22T16:54:26.552Z,6.90
2019-05-22T16:57:31.392Z,9.93
2019-05-22T17:00:36.269Z,9.30
2019-05-22T17:03:40.303Z,9.00
2019-05-22T17:06:44.346Z,7.70
2019-05-22T17:09:49.492Z,11.07
2019-05-22T17:12:54.744Z,7.30
2019-05-22T17:15:59.752Z,11.23
2019-05-22T17:19:23.816Z,6.90
2019-05-22T17:22:11.355Z,11.80
2019-05-22T17:25:16.952Z,12.20
2019-05-22T17:28:20.925Z,10.63
2019-05-22T17:31:26.801Z,6.17
2019-05-22T17:34:37.127Z,8.30
2019-05-22T17:37:42.107Z,5.87
2019-05-22T17:40:47.011Z,6.40
2019-05-22T17:43:50.995Z,8.07
2019-05-22T17:46:55.873Z,5.87
2019-05-22T17:50:01.508Z,10.83
2019-05-22T17:53:05.994Z,7.80
2019-05-22T17:56:10.046Z,6.30
2019-05-22T17:59:14.581Z,9.17
2019-05-22T18:02:20.869Z,5.73
2019-05-22T18:05:27.091Z,10.00
2019-05-22T18:08:31.068Z,4.57
2019-05-22T18:11:34.768Z,8.00
2019-05-22T18:14:38.837Z,5.47
2019-05-22T18:17:42.577Z,10.37
2019-05-22T18:20:46.860Z,6.03
2019-05-22T18:23:50.930Z,6.97
2019-05-22T18:26:54.700Z,8.63
2019-05-22T18:29:58.759Z,7.10
2019-05-22T18:33:02.828Z,6.43
2019-05-22T18:36:06.634Z,6.93
2019-05-22T18:39:12.080Z,8.90
2019-05-22T18:42:15.832Z,7.73
2019-05-22T18:45:21.358Z,7.53
2019-05-22T18:48:25.288Z,9.03
2019-05-22T18:51:29.760Z,9.17
2019-05-22T18:54:33.547Z,4.40
2019-05-22T18:57:37.637Z,5.63
2019-05-22T19:00:41.654Z,5.93
2019-05-22T19:03:45.430Z,12.50
2019-05-22T19:06:49.484Z,6.87
2019-05-22T19:09:53.216Z,7.37
2019-05-22T19:12:57.733Z,8.47
2019-05-22T19:16:01.449Z,7.07
2019-05-22T19:19:05.627Z,9.73
2019-05-22T19:22:09.450Z,6.13
2019-05-22T19:25:13.702Z,6.80
2019-05-22T19:28:17.635Z,7.30
2019-05-22T19:31:21.526Z,5.50
2019-05-22T19:34:25.226Z,6.40
2019-05-22T19:37:29.576Z,5.40
2019-05-22T19:40:33.796Z,9.13
2019-05-22T19:43:37.663Z,6.87
2019-05-22T19:46:41.479Z,7.83
2019-05-22T19:49:45.345Z,9.03
2019-05-22T19:52:49.243Z,9.90
2019-05-22T19:55:53.726Z,6.03
2019-05-22T19:58:58.559Z,9.37
2019-05-22T20:02:04.074Z,5.90
2019-05-22T20:05:09.100Z,8.37
2019-05-22T20:08:13.124Z,4.90
2019-05-22T20:11:16.900Z,9.70
2019-05-22T20:14:20.975Z,8.87
2019-05-22T20:17:24.678Z,7.03
2019-05-22T20:20:29.090Z,5.57
2019-05-22T20:23:36.472Z,8.47
2019-05-22T20:26:39.064Z,3.83
2019-05-22T20:29:43.308Z,6.63
2019-05-22T20:32:47.588Z,6.97
2019-05-22T20:35:51.296Z,5.20
2019-05-22T20:38:55.001Z,4.87
2019-05-22T20:41:59.208Z,6.60
2019-05-22T20:45:03.491Z,3.43
2019-05-22T20:48:12.170Z,7.23
2019-05-22T20:51:16.879Z,7.17
2019-05-22T20:54:21.152Z,7.00
2019-05-22T20:57:26.556Z,7.40
2019-05-22T21:00:31.827Z,8.33
2019-05-22T21:03:36.752Z,6.70
2019-05-22T21:06:48.556Z,6.70
2019-05-22T21:09:52.845Z,5.33
2019-05-22T21:12:57.555Z,6.17
2019-05-22T21:16:03.087Z,8.07
2019-05-22T21:19:07.954Z,5.03
2019-05-22T21:22:14.319Z,6.17
2019-05-22T21:25:18.322Z,7.27
2019-05-22T21:28:22.572Z,7.20
2019-05-22T21:31:27.092Z,9.07
2019-05-22T21:34:31.352Z,5.10
2019-05-22T21:37:35.324Z,6.23
2019-05-22T21:40:39.752Z,7.90
2019-05-22T21:43:44.099Z,7.97
2019-05-22T21:46:48.104Z,6.87
2019-05-22T21:49:52.369Z,10.07
2019-05-22T21:52:56.526Z,5.77
2019-05-22T21:56:05.114Z,6.70
2019-05-22T21:59:07.169Z,6.47
2019-05-22T22:02:15.870Z,7.13
2019-05-22T22:05:20.808Z,4.80
2019-05-22T22:08:25.143Z,6.90
2019-05-22T22:11:29.544Z,5.93
2019-05-22T22:14:33.667Z,11.23
2019-05-22T22:17:37.306Z,7.73
2019-05-22T22:20:41.745Z,6.43
2019-05-22T22:23:47.076Z,7.53
2019-05-22T22:26:51.442Z,7.60
2019-05-22T22:29:55.659Z,5.90
2019-05-22T22:33:02.106Z,5.13
2019-05-22T22:36:08.406Z,8.80
2019-05-22T22:39:14.766Z,7.00
2019-05-22T22:42:22.109Z,5.80
2019-05-22T22:45:37.052Z,5.60
2019-05-22T22:48:41.936Z,6.50
2019-05-22T22:51:48.943Z,5.13
2019-05-22T22:54:52.646Z,6.10
2019-05-22T22:57:56.712Z,6.90
2019-05-22T23:01:03.204Z,9.73
2019-05-22T23:04:10.133Z,6.60
2019-05-22T23:07:17.270Z,7.40
2019-05-22T23:10:23.053Z,7.97
2019-05-22T23:13:27.862Z,7.63
2019-05-22T23:16:32.510Z,7.33
2019-05-22T23:19:35.832Z,7.67
2019-05-22T23:22:40.120Z,8.87
2019-05-22T23:25:44.135Z,5.43
2019-05-22T23:28:47.927Z,9.03
2019-05-22T23:31:53.693Z,7.80
2019-05-22T23:34:59.414Z,6.50
2019-05-22T23:38:03.982Z,8.47
2019-05-22T23:41:08.202Z,7.13
2019-05-22T23:44:14.383Z,7.33
2019-05-22T23:47:18.949Z,7.53
2019-05-22T23:50:23.201Z,10.27
2019-05-22T23:53:28.266Z,7.70
2019-05-22T23:56:33.607Z,6.00
2019-05-22T23:59:39.823Z,6.60
